sensor_id;sensor_type;location;lat;lon;timestamp;temperature;humidity
43627;DHT22;29217;52.586;13.442;2024-02-28T00:02:19;4.40;99.90
43627;DHT22;29217;52.586;13.442;2024-02-28T00:04:44;4.40;99.90
43627;DHT22;29217;52.586;13.442;2024-02-28T00:07:10;4.50;99.90
43627;DHT22;29217;52.586;13.442;2024-02-28T00:09:36;4.50;99.90
43627;DHT22;29217;52.586;13.442;2024-02-28T00:12:01;4.40;99.90
43627;DHT22;29217;52.586;13.442;2024-02-28T00:14:27;4.40;99.90
43627;DHT22;29217;52.586;13.442;2024-02-28T00:16:52;4.40;99.90
43627;DHT22;29217;52.586;13.442;2024-02-28T00:19:18;4.50;99.90
43627;DHT22;29217;52.586;13.442;2024-02-28T00:21:45;4.50;99.90
43627;DHT22;29217;52.586;13.442;2024-02-28T00:24:11;4.40;99.90
43627;DHT22;29217;52.586;13.442;2024-02-28T00:26:41;4.40;99.90
43627;DHT22;29217;52.586;13.442;2024-02-28T00:29:07;4.40;99.90
43627;DHT22;29217;52.586;13.442;2024-02-28T00:31:33;4.40;99.90
43627;DHT22;29217;52.586;13.442;2024-02-28T00:33:58;4.40;99.90
43627;DHT22;29217;52.586;13.442;2024-02-28T00:36:24;4.40;99.90
43627;DHT22;29217;52.586;13.442;2024-02-28T00:38:49;4.50;99.90
43627;DHT22;29217;52.586;13.442;2024-02-28T00:41:15;4.30;99.90
43627;DHT22;29217;52.586;13.442;2024-02-28T00:43:41;4.40;99.90
43627;DHT22;29217;52.586;13.442;2024-02-28T00:46:06;4.20;99.90
43627;DHT22;29217;52.586;13.442;2024-02-28T00:48:37;4.50;99.90
43627;DHT22;29217;52.586;13.442;2024-02-28T00:51:02;4.40;99.90
43627;DHT22;29217;52.586;13.442;2024-02-28T00:53:28;4.30;99.90
43627;DHT22;29217;52.586;13.442;2024-02-28T00:55:54;4.40;99.90
43627;DHT22;29217;52.586;13.442;2024-02-28T00:58:20;4.50;99.90
43627;DHT22;29217;52.586;13.442;2024-02-28T01:00:50;4.50;99.90
43627;DHT22;29217;52.586;13.442;2024-02-28T01:03:15;4.30;99.90
43627;DHT22;29217;52.586;13.442;2024-02-28T01:05:42;4.40;99.90
43627;DHT22;29217;52.586;13.442;2024-02-28T01:08:07;4.40;99.90
43627;DHT22;29217;52.586;13.442;2024-02-28T01:10:33;4.50;99.90
43627;DHT22;29217;52.586;13.442;2024-02-28T01:12:59;4.30;99.90
43627;DHT22;29217;52.586;13.442;2024-02-28T01:15:25;4.20;99.90
43627;DHT22;29217;52.586;13.442;2024-02-28T01:17:50;4.20;99.90
43627;DHT22;29217;52.586;13.442;2024-02-28T01:20:16;4.30;99.90
43627;DHT22;29217;52.586;13.442;2024-02-28T01:22:42;4.30;99.90
43627;DHT22;29217;52.586;13.442;2024-02-28T01:25:08;4.40;99.90
43627;DHT22;29217;52.586;13.442;2024-02-28T01:27:34;4.20;99.90
43627;DHT22;29217;52.586;13.442;2024-02-28T01:30:00;4.20;99.90
43627;DHT22;29217;52.586;13.442;2024-02-28T01:32:26;4.30;99.90
43627;DHT22;29217;52.586;13.442;2024-02-28T01:34:52;4.50;99.90
43627;DHT22;29217;52.586;13.442;2024-02-28T01:37:17;4.30;99.90
43627;DHT22;29217;52.586;13.442;2024-02-28T01:39:43;4.40;99.90
43627;DHT22;29217;52.586;13.442;2024-02-28T01:42:08;4.50;99.90
43627;DHT22;29217;52.586;13.442;2024-02-28T01:44:40;4.30;99.90
43627;DHT22;29217;52.586;13.442;2024-02-28T01:47:06;4.40;99.90
43627;DHT22;29217;52.586;13.442;2024-02-28T01:49:32;4.40;99.90
43627;DHT22;29217;52.586;13.442;2024-02-28T01:51:58;4.50;99.90
43627;DHT22;29217;52.586;13.442;2024-02-28T01:54:24;4.40;99.90
43627;DHT22;29217;52.586;13.442;2024-02-28T01:56:50;4.20;99.90
43627;DHT22;29217;52.586;13.442;2024-02-28T01:59:17;4.60;99.90
43627;DHT22;29217;52.586;13.442;2024-02-28T02:01:43;4.30;99.90
43627;DHT22;29217;52.586;13.442;2024-02-28T02:04:08;4.50;99.90
43627;DHT22;29217;52.586;13.442;2024-02-28T02:06:37;4.50;99.90
43627;DHT22;29217;52.586;13.442;2024-02-28T02:09:04;4.50;99.90
43627;DHT22;29217;52.586;13.442;2024-02-28T02:11:29;4.50;99.90
43627;DHT22;29217;52.586;13.442;2024-02-28T02:13:55;4.40;99.90
43627;DHT22;29217;52.586;13.442;2024-02-28T02:16:21;4.40;99.90
43627;DHT22;29217;52.586;13.442;2024-02-28T02:18:53;4.60;99.90
43627;DHT22;29217;52.586;13.442;2024-02-28T02:21:21;4.40;99.90
43627;DHT22;29217;52.586;13.442;2024-02-28T02:23:48;4.40;99.90
43627;DHT22;29217;52.586;13.442;2024-02-28T02:26:13;4.40;99.90
43627;DHT22;29217;52.586;13.442;2024-02-28T02:28:39;4.40;99.90
43627;DHT22;29217;52.586;13.442;2024-02-28T02:31:05;4.30;99.90
43627;DHT22;29217;52.586;13.442;2024-02-28T02:33:30;4.60;99.90
43627;DHT22;29217;52.586;13.442;2024-02-28T02:35:56;4.40;99.90
43627;DHT22;29217;52.586;13.442;2024-02-28T02:38:21;4.30;99.90
43627;DHT22;29217;52.586;13.442;2024-02-28T02:40:51;4.40;99.90
43627;DHT22;29217;52.586;13.442;2024-02-28T02:43:16;4.30;99.90
43627;DHT22;29217;52.586;13.442;2024-02-28T02:45:42;4.40;99.90
43627;DHT22;29217;52.586;13.442;2024-02-28T02:48:09;4.30;99.90
43627;DHT22;29217;52.586;13.442;2024-02-28T02:50:34;4.30;99.90
43627;DHT22;29217;52.586;13.442;2024-02-28T02:53:00;4.30;99.90
43627;DHT22;29217;52.586;13.442;2024-02-28T02:55:25;4.40;99.90
43627;DHT22;29217;52.586;13.442;2024-02-28T02:57:51;4.30;99.90
43627;DHT22;29217;52.586;13.442;2024-02-28T03:00:17;4.20;99.90
43627;DHT22;29217;52.586;13.442;2024-02-28T03:02:42;4.20;99.90
43627;DHT22;29217;52.586;13.442;2024-02-28T03:05:08;4.30;99.90
43627;DHT22;29217;52.586;13.442;2024-02-28T03:07:35;4.10;99.90
43627;DHT22;29217;52.586;13.442;2024-02-28T03:10:00;4.00;99.90
43627;DHT22;29217;52.586;13.442;2024-02-28T03:12:27;4.10;99.90
43627;DHT22;29217;52.586;13.442;2024-02-28T03:14:52;4.20;99.90
43627;DHT22;29217;52.586;13.442;2024-02-28T03:17:18;4.10;99.90
43627;DHT22;29217;52.586;13.442;2024-02-28T03:19:43;4.20;99.90
43627;DHT22;29217;52.586;13.442;2024-02-28T03:22:09;4.20;99.90
43627;DHT22;29217;52.586;13.442;2024-02-28T03:24:34;4.10;99.90
43627;DHT22;29217;52.586;13.442;2024-02-28T03:27:01;4.10;99.90
43627;DHT22;29217;52.586;13.442;2024-02-28T03:29:27;4.10;99.90
43627;DHT22;29217;52.586;13.442;2024-02-28T03:31:53;4.10;99.90
43627;DHT22;29217;52.586;13.442;2024-02-28T03:34:19;4.10;99.90
43627;DHT22;29217;52.586;13.442;2024-02-28T03:36:44;4.00;99.90
43627;DHT22;29217;52.586;13.442;2024-02-28T03:39:10;4.10;99.90
43627;DHT22;29217;52.586;13.442;2024-02-28T03:41:36;4.10;99.90
43627;DHT22;29217;52.586;13.442;2024-02-28T03:44:01;4.10;99.90
43627;DHT22;29217;52.586;13.442;2024-02-28T03:46:27;4.30;99.90
43627;DHT22;29217;52.586;13.442;2024-02-28T03:48:53;4.20;99.90
43627;DHT22;29217;52.586;13.442;2024-02-28T03:51:18;4.10;99.90
43627;DHT22;29217;52.586;13.442;2024-02-28T03:53:44;4.20;99.90
43627;DHT22;29217;52.586;13.442;2024-02-28T03:56:09;4.20;99.90
43627;DHT22;29217;52.586;13.442;2024-02-28T03:58:35;4.30;99.90
43627;DHT22;29217;52.586;13.442;2024-02-28T04:01:01;4.10;99.90
43627;DHT22;29217;52.586;13.442;2024-02-28T04:03:26;4.10;99.90
43627;DHT22;29217;52.586;13.442;2024-02-28T04:05:52;4.20;99.90
43627;DHT22;29217;52.586;13.442;2024-02-28T04:08:17;4.10;99.90
43627;DHT22;29217;52.586;13.442;2024-02-28T04:10:43;4.10;99.90
43627;DHT22;29217;52.586;13.442;2024-02-28T04:13:09;4.00;99.90
43627;DHT22;29217;52.586;13.442;2024-02-28T04:15:34;4.30;99.90
43627;DHT22;29217;52.586;13.442;2024-02-28T04:18:01;4.00;99.90
43627;DHT22;29217;52.586;13.442;2024-02-28T04:20:26;4.00;99.90
43627;DHT22;29217;52.586;13.442;2024-02-28T04:22:52;4.20;99.90
43627;DHT22;29217;52.586;13.442;2024-02-28T04:25:17;4.10;99.90
43627;DHT22;29217;52.586;13.442;2024-02-28T04:27:43;4.00;99.90
43627;DHT22;29217;52.586;13.442;2024-02-28T04:30:09;4.20;99.90
43627;DHT22;29217;52.586;13.442;2024-02-28T04:32:36;3.90;99.90
43627;DHT22;29217;52.586;13.442;2024-02-28T04:35:01;4.10;99.90
43627;DHT22;29217;52.586;13.442;2024-02-28T04:37:28;4.20;99.90
43627;DHT22;29217;52.586;13.442;2024-02-28T04:39:54;4.10;99.90
43627;DHT22;29217;52.586;13.442;2024-02-28T04:42:19;4.00;99.90
43627;DHT22;29217;52.586;13.442;2024-02-28T04:44:45;4.10;99.90
43627;DHT22;29217;52.586;13.442;2024-02-28T04:47:11;4.20;99.90
43627;DHT22;29217;52.586;13.442;2024-02-28T04:49:37;4.10;99.90
43627;DHT22;29217;52.586;13.442;2024-02-28T04:52:04;4.10;99.90
43627;DHT22;29217;52.586;13.442;2024-02-28T04:54:30;4.10;99.90
43627;DHT22;29217;52.586;13.442;2024-02-28T04:56:56;4.20;99.90
43627;DHT22;29217;52.586;13.442;2024-02-28T04:59:21;4.00;99.90
43627;DHT22;29217;52.586;13.442;2024-02-28T05:01:47;4.00;99.90
43627;DHT22;29217;52.586;13.442;2024-02-28T05:04:13;4.10;99.90
43627;DHT22;29217;52.586;13.442;2024-02-28T05:06:39;4.20;99.90
43627;DHT22;29217;52.586;13.442;2024-02-28T05:09:04;4.00;99.90
43627;DHT22;29217;52.586;13.442;2024-02-28T05:11:30;4.10;99.90
43627;DHT22;29217;52.586;13.442;2024-02-28T05:13:56;4.30;99.90
43627;DHT22;29217;52.586;13.442;2024-02-28T05:16:21;4.20;99.90
43627;DHT22;29217;52.586;13.442;2024-02-28T05:18:47;4.20;99.90
43627;DHT22;29217;52.586;13.442;2024-02-28T05:21:13;4.20;99.90
43627;DHT22;29217;52.586;13.442;2024-02-28T05:23:40;4.00;99.90
43627;DHT22;29217;52.586;13.442;2024-02-28T05:26:06;3.90;99.90
43627;DHT22;29217;52.586;13.442;2024-02-28T05:28:35;4.10;99.90
43627;DHT22;29217;52.586;13.442;2024-02-28T05:31:03;4.00;99.90
43627;DHT22;29217;52.586;13.442;2024-02-28T05:33:44;4.00;99.90
43627;DHT22;29217;52.586;13.442;2024-02-28T05:36:09;4.10;99.90
43627;DHT22;29217;52.586;13.442;2024-02-28T05:38:35;4.00;99.90
43627;DHT22;29217;52.586;13.442;2024-02-28T05:41:00;4.00;99.90
43627;DHT22;29217;52.586;13.442;2024-02-28T05:43:26;4.00;99.90
43627;DHT22;29217;52.586;13.442;2024-02-28T05:45:53;4.00;99.90
43627;DHT22;29217;52.586;13.442;2024-02-28T05:48:18;4.00;99.90
43627;DHT22;29217;52.586;13.442;2024-02-28T05:50:44;4.00;99.90
43627;DHT22;29217;52.586;13.442;2024-02-28T05:53:09;4.10;99.90
43627;DHT22;29217;52.586;13.442;2024-02-28T05:55:35;4.00;99.90
43627;DHT22;29217;52.586;13.442;2024-02-28T05:58:01;4.40;99.90
43627;DHT22;29217;52.586;13.442;2024-02-28T06:00:27;4.00;99.90
43627;DHT22;29217;52.586;13.442;2024-02-28T06:02:53;4.10;99.90
43627;DHT22;29217;52.586;13.442;2024-02-28T06:05:19;4.10;99.90
43627;DHT22;29217;52.586;13.442;2024-02-28T06:07:45;4.20;99.90
43627;DHT22;29217;52.586;13.442;2024-02-28T06:10:11;4.10;99.90
43627;DHT22;29217;52.586;13.442;2024-02-28T06:12:36;4.10;99.90
43627;DHT22;29217;52.586;13.442;2024-02-28T06:15:03;4.20;99.90
43627;DHT22;29217;52.586;13.442;2024-02-28T06:17:29;4.20;99.90
43627;DHT22;29217;52.586;13.442;2024-02-28T06:19:55;4.10;99.90
43627;DHT22;29217;52.586;13.442;2024-02-28T06:22:20;4.20;99.90
43627;DHT22;29217;52.586;13.442;2024-02-28T06:24:46;4.10;99.90
43627;DHT22;29217;52.586;13.442;2024-02-28T06:27:12;4.10;99.90
43627;DHT22;29217;52.586;13.442;2024-02-28T06:29:42;4.10;99.90
43627;DHT22;29217;52.586;13.442;2024-02-28T06:32:08;4.00;99.90
43627;DHT22;29217;52.586;13.442;2024-02-28T06:34:33;4.00;99.90
43627;DHT22;29217;52.586;13.442;2024-02-28T06:36:59;4.00;99.90
43627;DHT22;29217;52.586;13.442;2024-02-28T06:39:25;3.90;99.90
43627;DHT22;29217;52.586;13.442;2024-02-28T06:41:50;4.00;99.90
43627;DHT22;29217;52.586;13.442;2024-02-28T06:44:18;4.00;99.90
43627;DHT22;29217;52.586;13.442;2024-02-28T06:46:44;4.10;99.90
43627;DHT22;29217;52.586;13.442;2024-02-28T06:49:09;4.00;99.90
43627;DHT22;29217;52.586;13.442;2024-02-28T06:51:35;4.00;99.90
43627;DHT22;29217;52.586;13.442;2024-02-28T06:54:01;4.10;99.90
43627;DHT22;29217;52.586;13.442;2024-02-28T06:56:26;4.10;99.90
43627;DHT22;29217;52.586;13.442;2024-02-28T06:58:52;4.00;99.90
43627;DHT22;29217;52.586;13.442;2024-02-28T07:01:18;3.90;99.90
43627;DHT22;29217;52.586;13.442;2024-02-28T07:03:44;4.10;99.90
43627;DHT22;29217;52.586;13.442;2024-02-28T07:06:09;4.00;99.90
43627;DHT22;29217;52.586;13.442;2024-02-28T07:08:35;4.10;99.90
43627;DHT22;29217;52.586;13.442;2024-02-28T07:11:00;4.30;99.90
43627;DHT22;29217;52.586;13.442;2024-02-28T07:13:26;4.00;99.90
43627;DHT22;29217;52.586;13.442;2024-02-28T07:15:52;4.00;99.90
43627;DHT22;29217;52.586;13.442;2024-02-28T07:18:20;4.00;99.90
43627;DHT22;29217;52.586;13.442;2024-02-28T07:20:46;4.10;99.90
43627;DHT22;29217;52.586;13.442;2024-02-28T07:23:12;4.00;99.90
43627;DHT22;29217;52.586;13.442;2024-02-28T07:25:37;3.90;99.90
43627;DHT22;29217;52.586;13.442;2024-02-28T07:28:03;4.00;99.90
43627;DHT22;29217;52.586;13.442;2024-02-28T07:30:30;3.90;99.90
43627;DHT22;29217;52.586;13.442;2024-02-28T07:32:55;3.80;99.90
43627;DHT22;29217;52.586;13.442;2024-02-28T07:35:22;3.80;99.90
43627;DHT22;29217;52.586;13.442;2024-02-28T07:37:49;3.90;99.90
43627;DHT22;29217;52.586;13.442;2024-02-28T07:40:15;4.00;99.90
43627;DHT22;29217;52.586;13.442;2024-02-28T07:42:40;3.80;99.90
43627;DHT22;29217;52.586;13.442;2024-02-28T07:45:06;3.70;99.90
43627;DHT22;29217;52.586;13.442;2024-02-28T07:47:34;3.50;99.90
43627;DHT22;29217;52.586;13.442;2024-02-28T07:49:59;3.50;99.90
43627;DHT22;29217;52.586;13.442;2024-02-28T07:52:25;3.90;99.90
43627;DHT22;29217;52.586;13.442;2024-02-28T07:54:51;3.70;99.90
43627;DHT22;29217;52.586;13.442;2024-02-28T07:57:17;3.80;99.90
43627;DHT22;29217;52.586;13.442;2024-02-28T07:59:43;3.60;99.90
43627;DHT22;29217;52.586;13.442;2024-02-28T08:02:09;3.70;99.90
43627;DHT22;29217;52.586;13.442;2024-02-28T08:04:37;3.70;99.90
43627;DHT22;29217;52.586;13.442;2024-02-28T08:07:02;3.70;99.90
43627;DHT22;29217;52.586;13.442;2024-02-28T08:09:28;3.60;99.90
43627;DHT22;29217;52.586;13.442;2024-02-28T08:11:54;3.70;99.90
43627;DHT22;29217;52.586;13.442;2024-02-28T08:14:19;3.60;99.90
43627;DHT22;29217;52.586;13.442;2024-02-28T08:16:45;3.70;99.90
43627;DHT22;29217;52.586;13.442;2024-02-28T08:19:11;3.60;99.90
43627;DHT22;29217;52.586;13.442;2024-02-28T08:21:36;3.70;99.90
43627;DHT22;29217;52.586;13.442;2024-02-28T08:24:02;3.80;99.90
43627;DHT22;29217;52.586;13.442;2024-02-28T08:26:31;3.80;99.90
43627;DHT22;29217;52.586;13.442;2024-02-28T08:28:56;3.60;99.90
43627;DHT22;29217;52.586;13.442;2024-02-28T08:31:22;3.70;99.90
43627;DHT22;29217;52.586;13.442;2024-02-28T08:33:48;3.60;99.90
43627;DHT22;29217;52.586;13.442;2024-02-28T08:36:13;3.40;99.90
43627;DHT22;29217;52.586;13.442;2024-02-28T08:38:40;3.40;99.90
43627;DHT22;29217;52.586;13.442;2024-02-28T08:41:07;3.40;99.90
43627;DHT22;29217;52.586;13.442;2024-02-28T08:43:39;3.40;99.90
43627;DHT22;29217;52.586;13.442;2024-02-28T08:46:05;3.20;99.90
43627;DHT22;29217;52.586;13.442;2024-02-28T08:48:31;3.50;99.90
43627;DHT22;29217;52.586;13.442;2024-02-28T08:50:57;3.50;99.90
43627;DHT22;29217;52.586;13.442;2024-02-28T08:53:22;3.40;99.90
43627;DHT22;29217;52.586;13.442;2024-02-28T08:55:48;3.30;99.90
43627;DHT22;29217;52.586;13.442;2024-02-28T08:58:14;3.50;99.90
43627;DHT22;29217;52.586;13.442;2024-02-28T09:00:40;3.60;99.90
43627;DHT22;29217;52.586;13.442;2024-02-28T09:03:05;3.40;99.90
43627;DHT22;29217;52.586;13.442;2024-02-28T09:05:31;3.60;99.90
43627;DHT22;29217;52.586;13.442;2024-02-28T09:07:57;3.80;99.90
43627;DHT22;29217;52.586;13.442;2024-02-28T09:10:23;3.40;99.90
43627;DHT22;29217;52.586;13.442;2024-02-28T09:12:51;3.60;99.90
43627;DHT22;29217;52.586;13.442;2024-02-28T09:15:17;3.60;99.90
43627;DHT22;29217;52.586;13.442;2024-02-28T09:17:43;3.50;99.90
43627;DHT22;29217;52.586;13.442;2024-02-28T09:20:10;3.50;99.90
43627;DHT22;29217;52.586;13.442;2024-02-28T09:22:35;3.40;99.90
43627;DHT22;29217;52.586;13.442;2024-02-28T09:25:01;3.50;99.90
43627;DHT22;29217;52.586;13.442;2024-02-28T09:27:30;3.50;99.90
43627;DHT22;29217;52.586;13.442;2024-02-28T09:29:56;3.50;99.90
43627;DHT22;29217;52.586;13.442;2024-02-28T09:32:21;3.50;99.90
43627;DHT22;29217;52.586;13.442;2024-02-28T09:34:47;3.50;99.90
43627;DHT22;29217;52.586;13.442;2024-02-28T09:37:14;3.40;99.90
43627;DHT22;29217;52.586;13.442;2024-02-28T09:39:40;3.40;99.90
43627;DHT22;29217;52.586;13.442;2024-02-28T09:42:09;3.60;99.90
43627;DHT22;29217;52.586;13.442;2024-02-28T09:44:36;3.60;99.90
43627;DHT22;29217;52.586;13.442;2024-02-28T09:47:02;3.40;99.90
43627;DHT22;29217;52.586;13.442;2024-02-28T09:49:31;3.40;99.90
43627;DHT22;29217;52.586;13.442;2024-02-28T09:51:57;3.60;99.90
43627;DHT22;29217;52.586;13.442;2024-02-28T09:54:23;3.50;99.90
43627;DHT22;29217;52.586;13.442;2024-02-28T09:56:49;3.50;99.90
43627;DHT22;29217;52.586;13.442;2024-02-28T09:59:18;3.40;99.90
43627;DHT22;29217;52.586;13.442;2024-02-28T10:01:47;3.50;99.90
43627;DHT22;29217;52.586;13.442;2024-02-28T10:04:15;3.30;99.90
43627;DHT22;29217;52.586;13.442;2024-02-28T10:06:42;3.30;99.90
43627;DHT22;29217;52.586;13.442;2024-02-28T10:09:08;3.50;99.90
43627;DHT22;29217;52.586;13.442;2024-02-28T10:11:35;3.60;99.90
43627;DHT22;29217;52.586;13.442;2024-02-28T10:14:01;3.40;99.90
43627;DHT22;29217;52.586;13.442;2024-02-28T10:16:27;3.40;99.90
43627;DHT22;29217;52.586;13.442;2024-02-28T10:18:53;3.50;99.90
43627;DHT22;29217;52.586;13.442;2024-02-28T10:21:19;3.40;99.90
43627;DHT22;29217;52.586;13.442;2024-02-28T10:23:45;3.60;99.90
43627;DHT22;29217;52.586;13.442;2024-02-28T10:26:12;3.40;99.90
43627;DHT22;29217;52.586;13.442;2024-02-28T10:28:38;3.50;99.90
43627;DHT22;29217;52.586;13.442;2024-02-28T10:31:06;3.50;99.90
43627;DHT22;29217;52.586;13.442;2024-02-28T10:33:32;3.50;99.90
43627;DHT22;29217;52.586;13.442;2024-02-28T10:35:59;3.50;99.90
43627;DHT22;29217;52.586;13.442;2024-02-28T10:38:26;3.60;99.90
43627;DHT22;29217;52.586;13.442;2024-02-28T10:40:53;3.70;99.90
43627;DHT22;29217;52.586;13.442;2024-02-28T10:43:19;3.60;99.90
43627;DHT22;29217;52.586;13.442;2024-02-28T10:45:45;3.50;99.90
43627;DHT22;29217;52.586;13.442;2024-02-28T10:48:14;3.60;99.90
43627;DHT22;29217;52.586;13.442;2024-02-28T10:50:40;3.70;99.90
43627;DHT22;29217;52.586;13.442;2024-02-28T10:53:14;3.40;99.90
43627;DHT22;29217;52.586;13.442;2024-02-28T10:55:41;3.60;99.90
43627;DHT22;29217;52.586;13.442;2024-02-28T10:58:08;3.60;99.90
43627;DHT22;29217;52.586;13.442;2024-02-28T11:00:39;3.50;99.90
43627;DHT22;29217;52.586;13.442;2024-02-28T11:03:05;3.70;99.90
43627;DHT22;29217;52.586;13.442;2024-02-28T11:05:41;3.70;99.90
43627;DHT22;29217;52.586;13.442;2024-02-28T11:08:11;3.70;99.90
43627;DHT22;29217;52.586;13.442;2024-02-28T11:10:45;3.60;99.90
43627;DHT22;29217;52.586;13.442;2024-02-28T11:13:25;3.80;99.90
43627;DHT22;29217;52.586;13.442;2024-02-28T11:15:51;3.90;99.90
43627;DHT22;29217;52.586;13.442;2024-02-28T11:18:17;3.80;99.90
43627;DHT22;29217;52.586;13.442;2024-02-28T11:20:43;3.80;99.90
43627;DHT22;29217;52.586;13.442;2024-02-28T11:23:12;3.80;99.90
43627;DHT22;29217;52.586;13.442;2024-02-28T11:25:37;3.80;99.90
43627;DHT22;29217;52.586;13.442;2024-02-28T11:28:04;3.90;99.90
43627;DHT22;29217;52.586;13.442;2024-02-28T11:30:29;3.80;99.90
43627;DHT22;29217;52.586;13.442;2024-02-28T11:32:56;3.90;99.90
43627;DHT22;29217;52.586;13.442;2024-02-28T11:35:24;4.00;99.90
43627;DHT22;29217;52.586;13.442;2024-02-28T11:37:50;3.80;99.90
43627;DHT22;29217;52.586;13.442;2024-02-28T11:40:19;4.10;99.90
43627;DHT22;29217;52.586;13.442;2024-02-28T11:42:44;4.10;99.90
43627;DHT22;29217;52.586;13.442;2024-02-28T11:45:10;4.10;99.90
43627;DHT22;29217;52.586;13.442;2024-02-28T11:47:36;4.20;99.90
43627;DHT22;29217;52.586;13.442;2024-02-28T11:50:03;4.20;99.90
43627;DHT22;29217;52.586;13.442;2024-02-28T11:52:33;4.00;99.90
43627;DHT22;29217;52.586;13.442;2024-02-28T11:54:58;4.20;99.90
43627;DHT22;29217;52.586;13.442;2024-02-28T11:57:25;4.10;99.90
43627;DHT22;29217;52.586;13.442;2024-02-28T11:59:51;4.30;99.90
43627;DHT22;29217;52.586;13.442;2024-02-28T12:02:17;4.00;99.90
43627;DHT22;29217;52.586;13.442;2024-02-28T12:04:44;3.90;99.90
43627;DHT22;29217;52.586;13.442;2024-02-28T12:07:10;4.10;99.90
43627;DHT22;29217;52.586;13.442;2024-02-28T12:09:36;4.10;99.90
43627;DHT22;29217;52.586;13.442;2024-02-28T12:12:02;4.10;99.90
43627;DHT22;29217;52.586;13.442;2024-02-28T12:14:31;4.00;99.90
43627;DHT22;29217;52.586;13.442;2024-02-28T12:16:57;4.20;99.90
43627;DHT22;29217;52.586;13.442;2024-02-28T12:19:24;4.10;99.90
43627;DHT22;29217;52.586;13.442;2024-02-28T12:21:50;4.20;99.90
43627;DHT22;29217;52.586;13.442;2024-02-28T12:24:15;4.10;99.90
43627;DHT22;29217;52.586;13.442;2024-02-28T12:26:41;4.10;99.90
43627;DHT22;29217;52.586;13.442;2024-02-28T12:29:07;4.20;99.90
43627;DHT22;29217;52.586;13.442;2024-02-28T12:31:35;4.20;99.90
43627;DHT22;29217;52.586;13.442;2024-02-28T12:34:00;4.30;99.90
43627;DHT22;29217;52.586;13.442;2024-02-28T12:36:26;4.40;99.90
43627;DHT22;29217;52.586;13.442;2024-02-28T12:38:52;4.30;99.90
43627;DHT22;29217;52.586;13.442;2024-02-28T12:41:17;4.70;99.90
43627;DHT22;29217;52.586;13.442;2024-02-28T12:43:43;4.60;99.90
43627;DHT22;29217;52.586;13.442;2024-02-28T12:46:09;4.60;99.90
43627;DHT22;29217;52.586;13.442;2024-02-28T12:48:38;4.50;99.90
43627;DHT22;29217;52.586;13.442;2024-02-28T12:51:05;4.60;99.90
43627;DHT22;29217;52.586;13.442;2024-02-28T12:53:31;4.80;99.90
43627;DHT22;29217;52.586;13.442;2024-02-28T12:55:57;4.70;99.90
43627;DHT22;29217;52.586;13.442;2024-02-28T12:58:23;4.70;99.90
43627;DHT22;29217;52.586;13.442;2024-02-28T13:00:51;4.70;99.90
43627;DHT22;29217;52.586;13.442;2024-02-28T13:03:18;4.70;99.90
43627;DHT22;29217;52.586;13.442;2024-02-28T13:05:43;4.50;99.90
43627;DHT22;29217;52.586;13.442;2024-02-28T13:08:09;4.60;99.90
43627;DHT22;29217;52.586;13.442;2024-02-28T13:10:35;4.60;99.90
43627;DHT22;29217;52.586;13.442;2024-02-28T13:13:05;4.50;99.90
43627;DHT22;29217;52.586;13.442;2024-02-28T13:15:31;4.40;99.90
43627;DHT22;29217;52.586;13.442;2024-02-28T13:17:57;4.50;99.90
43627;DHT22;29217;52.586;13.442;2024-02-28T13:20:23;4.70;99.90
43627;DHT22;29217;52.586;13.442;2024-02-28T13:22:48;4.70;99.90
43627;DHT22;29217;52.586;13.442;2024-02-28T13:25:14;4.60;99.90
43627;DHT22;29217;52.586;13.442;2024-02-28T13:27:41;4.70;99.90
43627;DHT22;29217;52.586;13.442;2024-02-28T13:30:07;4.80;99.90
43627;DHT22;29217;52.586;13.442;2024-02-28T13:32:32;4.70;99.90
43627;DHT22;29217;52.586;13.442;2024-02-28T13:34:58;4.80;99.90
43627;DHT22;29217;52.586;13.442;2024-02-28T13:37:25;4.90;99.90
43627;DHT22;29217;52.586;13.442;2024-02-28T13:39:50;5.00;99.90
43627;DHT22;29217;52.586;13.442;2024-02-28T13:42:17;4.90;99.90
43627;DHT22;29217;52.586;13.442;2024-02-28T13:44:45;5.00;99.90
43627;DHT22;29217;52.586;13.442;2024-02-28T13:47:12;5.00;99.90
43627;DHT22;29217;52.586;13.442;2024-02-28T13:49:39;4.80;99.90
43627;DHT22;29217;52.586;13.442;2024-02-28T13:52:05;5.00;99.90
43627;DHT22;29217;52.586;13.442;2024-02-28T13:54:30;5.10;99.90
43627;DHT22;29217;52.586;13.442;2024-02-28T13:56:56;5.20;99.90
43627;DHT22;29217;52.586;13.442;2024-02-28T13:59:22;5.50;99.90
43627;DHT22;29217;52.586;13.442;2024-02-28T14:01:49;5.70;99.90
43627;DHT22;29217;52.586;13.442;2024-02-28T14:04:15;6.00;99.90
43627;DHT22;29217;52.586;13.442;2024-02-28T14:06:40;6.20;99.90
43627;DHT22;29217;52.586;13.442;2024-02-28T14:09:06;6.30;99.90
43627;DHT22;29217;52.586;13.442;2024-02-28T14:11:32;5.90;99.90
43627;DHT22;29217;52.586;13.442;2024-02-28T14:13:57;5.80;99.90
43627;DHT22;29217;52.586;13.442;2024-02-28T14:16:24;5.60;99.90
43627;DHT22;29217;52.586;13.442;2024-02-28T14:18:50;5.40;99.90
43627;DHT22;29217;52.586;13.442;2024-02-28T14:21:16;5.50;99.90
43627;DHT22;29217;52.586;13.442;2024-02-28T14:23:42;6.30;99.90
43627;DHT22;29217;52.586;13.442;2024-02-28T14:26:08;6.40;99.90
43627;DHT22;29217;52.586;13.442;2024-02-28T14:28:34;6.50;99.90
43627;DHT22;29217;52.586;13.442;2024-02-28T14:31:00;6.30;99.90
43627;DHT22;29217;52.586;13.442;2024-02-28T14:33:25;6.60;99.90
43627;DHT22;29217;52.586;13.442;2024-02-28T14:35:51;6.20;99.90
43627;DHT22;29217;52.586;13.442;2024-02-28T14:38:17;5.90;99.90
43627;DHT22;29217;52.586;13.442;2024-02-28T14:40:43;5.60;99.90
43627;DHT22;29217;52.586;13.442;2024-02-28T14:43:09;5.50;99.90
43627;DHT22;29217;52.586;13.442;2024-02-28T14:45:34;5.40;99.90
43627;DHT22;29217;52.586;13.442;2024-02-28T14:48:00;5.40;99.90
43627;DHT22;29217;52.586;13.442;2024-02-28T14:50:26;5.40;99.90
43627;DHT22;29217;52.586;13.442;2024-02-28T14:52:51;5.30;99.90
43627;DHT22;29217;52.586;13.442;2024-02-28T14:55:17;5.40;99.90
43627;DHT22;29217;52.586;13.442;2024-02-28T14:57:43;5.40;99.90
43627;DHT22;29217;52.586;13.442;2024-02-28T15:00:10;5.70;99.90
43627;DHT22;29217;52.586;13.442;2024-02-28T15:02:42;5.90;99.90
43627;DHT22;29217;52.586;13.442;2024-02-28T15:05:09;6.30;99.90
43627;DHT22;29217;52.586;13.442;2024-02-28T15:07:35;6.30;99.90
43627;DHT22;29217;52.586;13.442;2024-02-28T15:10:02;6.30;99.90
43627;DHT22;29217;52.586;13.442;2024-02-28T15:12:32;6.30;99.90
43627;DHT22;29217;52.586;13.442;2024-02-28T15:15:01;5.80;99.90
43627;DHT22;29217;52.586;13.442;2024-02-28T15:17:28;6.20;99.90
43627;DHT22;29217;52.586;13.442;2024-02-28T15:19:53;6.10;99.90
43627;DHT22;29217;52.586;13.442;2024-02-28T15:22:19;6.10;99.90
43627;DHT22;29217;52.586;13.442;2024-02-28T15:24:45;6.20;99.90